createdAt,value
2023-04-25T00:02:16.372Z,5.30
2023-04-25T00:04:44.841Z,5.60
2023-04-25T00:07:12.404Z,5.80
2023-04-25T00:09:39.480Z,6.20
2023-04-25T00:12:06.916Z,4.60
2023-04-25T00:14:35.258Z,4.60
2023-04-25T00:17:03.996Z,5.60
2023-04-25T00:19:31.325Z,5.90
2023-04-25T00:21:58.585Z,6.10
2023-04-25T00:24:25.932Z,6.10
2023-04-25T00:26:52.894Z,6.00
2023-04-25T00:29:22.893Z,5.30
2023-04-25T00:31:50.279Z,6.60
2023-04-25T00:34:17.396Z,5.60
2023-04-25T00:36:44.401Z,5.50
2023-04-25T00:39:11.796Z,6.90
2023-04-25T00:41:38.816Z,5.50
2023-04-25T00:44:06.210Z,5.00
2023-04-25T00:46:36.222Z,6.20
2023-04-25T00:49:03.596Z,6.20
2023-04-25T00:51:35.136Z,5.30
2023-04-25T00:54:08.507Z,5.20
2023-04-25T00:56:35.488Z,4.80
2023-04-25T00:59:02.521Z,6.40
2023-04-25T01:01:29.651Z,5.10
2023-04-25T01:03:59.847Z,6.10
2023-04-25T01:06:27.049Z,5.10
2023-04-25T01:08:54.102Z,5.40
2023-04-25T01:11:21.646Z,7.40
2023-04-25T01:13:48.977Z,5.30
2023-04-25T01:16:16.676Z,5.40
2023-04-25T01:18:43.918Z,6.40
2023-04-25T01:21:12.173Z,6.00
2023-04-25T01:23:40.355Z,5.40
2023-04-25T01:26:08.622Z,4.90
2023-04-25T01:28:36.181Z,6.60
2023-04-25T01:31:03.481Z,5.50
2023-04-25T01:33:30.587Z,4.50
2023-04-25T01:35:57.660Z,5.90
2023-04-25T01:47:44.787Z,5.20
2023-04-25T01:50:36.682Z,4.50
2023-04-25T06:08:12.419Z,4.40
2023-04-25T06:15:38.722Z,3.40
2023-04-25T06:18:06.189Z,4.50
2023-04-25T06:20:34.945Z,3.90
2023-04-25T06:23:02.173Z,2.70
2023-04-25T06:25:39.443Z,3.60
2023-04-25T06:34:53.685Z,3.30
2023-04-25T06:37:21.200Z,4.10
2023-04-25T06:39:49.104Z,4.00
2023-04-25T06:42:18.328Z,5.00
2023-04-25T06:44:55.202Z,3.00
2023-04-25T06:47:23.223Z,3.30
2023-04-25T06:49:56.104Z,4.20
2023-04-25T06:52:23.820Z,3.70
2023-04-25T06:54:52.761Z,4.00
2023-04-25T06:57:31.072Z,4.50
2023-04-25T07:00:10.607Z,5.00
2023-04-25T07:02:38.001Z,4.60
2023-04-25T07:05:05.673Z,3.80
2023-04-25T07:07:32.725Z,3.90
2023-04-25T07:09:59.672Z,4.50
2023-04-25T07:12:27.196Z,4.60
2023-04-25T07:14:54.902Z,4.50
2023-04-25T07:17:22.142Z,4.00
2023-04-25T07:19:49.075Z,4.10
2023-04-25T07:22:17.760Z,5.00
2023-04-25T07:24:48.425Z,4.60
2023-04-25T07:27:16.078Z,4.50
2023-04-25T07:30:06.846Z,4.00
2023-04-25T07:32:34.338Z,3.80
2023-04-25T07:35:02.926Z,3.60
2023-04-25T07:37:30.376Z,4.80
2023-04-25T07:40:18.453Z,3.90
2023-04-25T07:42:48.781Z,3.90
2023-04-25T07:53:13.796Z,4.30
2023-04-25T07:55:46.474Z,3.40
2023-04-25T07:58:21.715Z,4.90
2023-04-25T08:00:50.398Z,3.90
2023-04-25T08:03:28.791Z,3.30
2023-04-25T08:05:56.549Z,3.60
2023-04-25T08:08:24.648Z,3.60
2023-04-25T08:10:52.241Z,3.90
2023-04-25T08:13:19.386Z,3.50
2023-04-25T08:15:46.494Z,4.10
2023-04-25T08:18:17.524Z,4.40
2023-04-25T08:20:45.624Z,4.50
2023-04-25T08:23:13.825Z,4.40
2023-04-25T08:25:52.921Z,3.10
2023-04-25T08:28:22.646Z,3.50
2023-04-25T08:30:49.364Z,3.70
2023-04-25T08:33:17.078Z,4.70
2023-04-25T08:35:59.968Z,5.30
2023-04-25T08:38:28.981Z,6.20
2023-04-25T08:40:56.386Z,5.00
2023-04-25T08:43:24.045Z,5.40
2023-04-25T08:46:17.970Z,5.10
2023-04-25T08:49:04.669Z,4.80
2023-04-25T08:51:32.616Z,5.70
2023-04-25T08:54:19.713Z,4.60
2023-04-25T08:56:58.532Z,4.90
2023-04-25T08:59:25.526Z,4.00
2023-04-25T09:01:52.720Z,5.40
2023-04-25T09:04:21.699Z,4.20
2023-04-25T09:06:48.813Z,4.80
2023-04-25T09:09:16.189Z,4.90
2023-04-25T09:11:43.429Z,5.00
2023-04-25T09:14:12.733Z,4.30
2023-04-25T09:17:08.292Z,3.60
2023-04-25T09:19:54.547Z,4.30
2023-04-25T09:22:27.834Z,6.10
2023-04-25T09:24:55.084Z,4.30
2023-04-25T09:27:25.717Z,3.80
2023-04-25T09:30:03.538Z,4.10
2023-04-25T09:32:46.190Z,4.10
2023-04-25T09:35:16.976Z,4.60
2023-04-25T09:37:45.549Z,4.30
2023-04-25T09:40:31.685Z,4.10
2023-04-25T09:43:21.573Z,4.40
2023-04-25T09:45:49.971Z,4.30
2023-04-25T10:51:47.313Z,4.40
2023-04-25T10:54:21.685Z,3.30
2023-04-25T10:56:52.043Z,3.50
2023-04-25T10:59:20.193Z,2.90
2023-04-25T11:01:48.567Z,2.80
2023-04-25T11:04:28.427Z,2.60
2023-04-25T11:07:19.031Z,3.00
2023-04-25T11:09:46.627Z,2.60
2023-04-25T11:12:14.364Z,2.10
2023-04-25T11:14:41.914Z,2.70
2023-04-25T11:17:10.226Z,3.60
2023-04-25T11:19:40.289Z,2.70
2023-04-25T11:22:09.070Z,3.20
2023-04-25T11:24:37.883Z,3.40
2023-04-25T11:27:08.080Z,2.70
2023-04-25T11:29:38.132Z,2.40
2023-04-25T11:32:08.220Z,2.90
2023-04-25T11:34:35.649Z,3.10
2023-04-25T11:37:03.330Z,3.30
2023-04-25T11:39:34.109Z,4.50
2023-04-25T11:44:36.204Z,2.60
2023-04-25T11:47:04.922Z,3.20
2023-04-25T11:49:38.011Z,3.70
2023-04-25T11:52:08.675Z,2.10
2023-04-25T11:54:39.094Z,2.50
2023-04-25T11:57:06.950Z,2.20
2023-04-25T11:59:34.128Z,3.40
2023-04-25T12:02:03.104Z,2.50
2023-04-25T12:04:31.750Z,2.60
2023-04-25T12:06:59.150Z,2.80
2023-04-25T12:09:33.518Z,3.70
2023-04-25T12:12:04.139Z,2.10
2023-04-25T12:14:56.349Z,2.80
2023-04-25T12:17:23.495Z,3.10
2023-04-25T12:19:50.796Z,2.60
2023-04-25T12:22:25.368Z,3.10
2023-04-25T12:24:55.436Z,3.70
2023-04-25T12:27:22.733Z,2.90
2023-04-25T12:29:54.004Z,2.20
2023-04-25T12:32:22.161Z,2.50
2023-04-25T12:34:49.672Z,2.60
2023-04-25T12:37:16.929Z,2.90
2023-04-25T12:39:44.175Z,3.00
2023-04-25T12:42:13.994Z,2.90
2023-04-25T12:44:41.916Z,2.20
2023-04-25T12:47:09.165Z,3.30
2023-04-25T12:49:57.620Z,2.70
2023-04-25T12:52:24.699Z,2.20
2023-04-25T12:54:51.783Z,2.10
2023-04-25T12:57:19.152Z,2.70
2023-04-25T12:59:46.316Z,1.90
2023-04-25T13:02:13.799Z,2.40
2023-04-25T13:04:41.264Z,1.90
2023-04-25T13:07:08.568Z,2.20
2023-04-25T13:09:35.825Z,1.80
2023-04-25T13:12:02.992Z,2.40
2023-04-25T13:14:30.126Z,2.70
2023-04-25T13:16:57.427Z,2.10
2023-04-25T13:19:24.632Z,2.60
2023-04-25T13:21:51.730Z,2.70
2023-04-25T13:24:19.166Z,2.60
2023-04-25T13:26:49.757Z,2.80
2023-04-25T13:31:45.748Z,3.00
2023-04-25T13:34:14.343Z,1.60
2023-04-25T13:36:42.769Z,3.30
2023-04-25T13:39:09.950Z,2.20
2023-04-25T13:41:40.247Z,2.40
2023-04-25T13:44:07.521Z,1.90
2023-04-25T13:46:46.398Z,2.10
2023-04-25T13:49:15.033Z,2.50
2023-04-25T13:51:43.626Z,2.60
2023-04-25T13:54:11.760Z,4.20
2023-04-25T13:56:39.495Z,2.30
2023-04-25T13:59:06.735Z,2.50
2023-04-25T14:01:36.501Z,2.60
2023-04-25T14:04:06.893Z,2.40
2023-04-25T14:06:34.266Z,3.70
2023-04-25T14:09:05.550Z,3.30
2023-04-25T14:11:32.948Z,1.80
2023-04-25T14:14:00.138Z,2.00
2023-04-25T14:16:27.542Z,2.60
2023-04-25T14:18:55.692Z,3.40
2023-04-25T14:21:22.934Z,3.20
2023-04-25T14:23:50.151Z,3.30
2023-04-25T14:26:17.640Z,3.30
2023-04-25T14:28:46.180Z,4.00
2023-04-25T14:31:13.343Z,3.00
2023-04-25T14:33:43.321Z,3.50
2023-04-25T14:36:12.099Z,2.90
2023-04-25T14:38:39.066Z,2.40
2023-04-25T14:41:07.053Z,3.30
2023-04-25T14:43:34.325Z,3.90
2023-04-25T14:46:04.835Z,3.40
2023-04-25T14:48:32.366Z,2.70
2023-04-25T14:51:01.289Z,8.70
2023-04-25T14:53:28.513Z,4.10
2023-04-25T14:55:58.531Z,6.30
2023-04-25T14:58:25.578Z,8.20
2023-04-25T15:00:53.525Z,6.00
2023-04-25T15:03:20.763Z,4.20
2023-04-25T15:05:50.719Z,3.30
2023-04-25T15:08:17.912Z,4.90
2023-04-25T15:10:47.875Z,12.60
2023-04-25T15:13:14.796Z,6.30
2023-04-25T15:15:41.839Z,4.40
2023-04-25T15:18:08.920Z,5.20
2023-04-25T15:20:35.974Z,4.40
2023-04-25T15:23:04.551Z,4.30
2023-04-25T15:25:31.555Z,3.40
2023-04-25T15:27:58.590Z,4.80
2023-04-25T15:30:25.713Z,4.20
2023-04-25T15:32:53.578Z,3.70
2023-04-25T18:17:44.842Z,3.20
2023-04-25T21:52:28.063Z,4.50
2023-04-25T22:26:35.462Z,5.40
2023-04-25T22:41:13.194Z,4.70
2023-04-25T22:43:43.391Z,4.80
2023-04-25T22:46:18.174Z,4.30
2023-04-25T22:48:48.709Z,5.00
2023-04-25T22:51:15.823Z,4.70
2023-04-25T22:53:43.150Z,5.00
2023-04-25T22:56:10.222Z,5.10
2023-04-25T22:58:38.474Z,4.20
2023-04-25T23:01:07.379Z,4.60
2023-04-25T23:03:34.838Z,5.40
2023-04-25T23:06:02.514Z,4.10
2023-04-25T23:08:30.051Z,4.40
2023-04-25T23:10:59.957Z,3.90
2023-04-25T23:13:27.219Z,4.20
2023-04-25T23:15:54.360Z,5.40
2023-04-25T23:18:21.339Z,4.50
2023-04-25T23:20:48.455Z,4.60
2023-04-25T23:23:15.534Z,4.20
2023-04-25T23:25:42.572Z,4.90
2023-04-25T23:28:09.639Z,4.30
2023-04-25T23:30:37.098Z,3.80
2023-04-25T23:33:04.356Z,3.60
2023-04-25T23:35:31.470Z,3.40
2023-04-25T23:37:58.571Z,3.80
2023-04-25T23:40:25.561Z,3.10
2023-04-25T23:42:52.384Z,6.60
2023-04-25T23:45:19.460Z,3.80
2023-04-25T23:47:46.770Z,3.60
2023-04-25T23:50:13.938Z,5.60
2023-04-25T23:52:41.191Z,3.30
2023-04-25T23:55:09.942Z,3.90
2023-04-25T23:57:37.447Z,5.00
